Time;durP1;ratioP1;P1;durP2;ratioP2;P2;SDS_P1;SDS_P2;PMS_P1;PMS_P2;Temp;Humidity;BMP_temperature;BMP_pressure;BME280_temperature;BME280_humidity;BME280_pressure;Samples;Min_cycle;Max_cycle;Signal;HPM_P1;HPM_P2
2023/03/29 00:02:29;;;;;;;5.15;3.45;;;;;;;;;;4992629;28;20398;-76
2023/03/29 00:05:00;;;;;;;8.00;3.50;;;;;;;;;;4984794;28;20042;-78
2023/03/29 00:07:28;;;;;;;5.15;3.05;;;;;;;;;;4991585;28;20061;-78
2023/03/29 00:09:54;;;;;;;4.70;3.50;;;;;;;;;;4991575;28;20038;-77
2023/03/29 00:12:19;;;;;;;8.13;3.38;;;;;;;;;;4992149;28;20366;-77
2023/03/29 00:14:45;;;;;;;13.18;3.85;;;;;;;;;;4992025;28;20544;-77
2023/03/29 00:17:10;;;;;;;;;;;;;;;;;;4993267;28;20564;-77
2023/03/29 00:19:35;;;;;;;6.30;3.50;;;;;;;;;;4991695;28;19910;-76
2023/03/29 00:22:06;;;;;;;9.00;3.47;;;;;;;;;;4993356;28;20065;-76
2023/03/29 00:24:32;;;;;;;7.85;3.67;;;;;;;;;;4991205;28;20041;-76
2023/03/29 00:26:57;;;;;;;5.15;3.20;;;;;;;;;;4991775;28;20026;-79
2023/03/29 00:29:23;;;;;;;6.13;3.50;;;;;;;;;;4992373;28;20026;-76
2023/03/29 00:31:52;;;;;;;7.80;4.00;;;;;;;;;;4992749;28;20497;-76
2023/03/29 00:34:21;;;;;;;6.32;3.90;;;;;;;;;;4977538;28;20055;-80
2023/03/29 00:36:51;;;;;;;11.75;4.00;;;;;;;;;;5008833;28;20029;-77
2023/03/29 00:39:21;;;;;;;8.00;3.10;;;;;;;;;;4980100;28;20825;-77
2023/03/29 00:41:46;;;;;;;6.18;3.40;;;;;;;;;;5001938;28;20116;-80
2023/03/29 00:44:30;;;;;;;5.30;3.60;;;;;;;;;;4994224;28;20041;-80
2023/03/29 00:46:56;;;;;;;5.30;3.38;;;;;;;;;;4992916;28;20101;-77
2023/03/29 00:49:21;;;;;;;5.47;3.33;;;;;;;;;;4995439;28;20026;-78
2023/03/29 00:51:47;;;;;;;;;;;;;;;;;;4996175;28;20060;-77
2023/03/29 00:54:13;;;;;;;4.50;3.10;;;;;;;;;;5008794;28;19917;-80
2023/03/29 00:56:38;;;;;;;4.55;3.13;;;;;;;;;;4999428;28;20604;-80
2023/03/29 00:59:12;;;;;;;5.13;3.13;;;;;;;;;;4977880;28;20118;-80
2023/03/29 01:01:44;;;;;;;4.80;3.30;;;;;;;;;;4993582;28;20525;-80
2023/03/29 01:04:18;;;;;;;5.68;3.05;;;;;;;;;;4989743;28;20042;-81
2023/03/29 01:06:45;;;;;;;5.47;3.63;;;;;;;;;;4991563;28;20030;-81
2023/03/29 01:09:11;;;;;;;4.70;3.28;;;;;;;;;;4996060;28;20030;-80
2023/03/29 01:11:37;;;;;;;;;;;;;;;;;;4994849;28;20030;-81
2023/03/29 01:14:04;;;;;;;5.47;3.38;;;;;;;;;;4994932;28;19965;-80
2023/03/29 01:16:31;;;;;;;5.78;3.60;;;;;;;;;;4980219;28;20033;-80
2023/03/29 01:18:57;;;;;;;5.15;3.05;;;;;;;;;;4975426;28;20521;-81
2023/03/29 01:21:29;;;;;;;5.65;3.40;;;;;;;;;;4992002;28;20038;-81
2023/03/29 01:23:57;;;;;;;5.32;3.38;;;;;;;;;;4976652;28;20489;-80
2023/03/29 01:26:23;;;;;;;6.03;3.22;;;;;;;;;;4994166;28;20030;-81
2023/03/29 01:28:58;;;;;;;8.25;3.40;;;;;;;;;;4993688;28;20026;-81
2023/03/29 01:31:31;;;;;;;4.65;3.40;;;;;;;;;;4993973;28;20061;-81
2023/03/29 01:34:20;;;;;;;6.00;3.58;;;;;;;;;;4992670;28;20054;-80
2023/03/29 01:36:48;;;;;;;6.50;3.40;;;;;;;;;;4981451;28;20053;-80
2023/03/29 01:39:13;;;;;;;5.60;3.38;;;;;;;;;;4993529;28;20026;-79
2023/03/29 01:41:39;;;;;;;;;;;;;;;;;;4978957;28;20038;-80
2023/03/29 01:44:06;;;;;;;6.22;3.47;;;;;;;;;;4994758;28;19941;-79
2023/03/29 01:46:32;;;;;;;6.05;3.75;;;;;;;;;;4994271;28;20068;-80
2023/03/29 01:48:59;;;;;;;5.20;3.63;;;;;;;;;;4994091;28;20033;-79
2023/03/29 01:51:33;;;;;;;6.47;3.50;;;;;;;;;;4996552;28;20030;-80
2023/03/29 01:54:01;;;;;;;7.22;3.50;;;;;;;;;;4993934;28;20038;-80
2023/03/29 01:56:28;;;;;;;5.68;3.67;;;;;;;;;;4973298;28;20022;-80
2023/03/29 01:58:53;;;;;;;;;;;;;;;;;;4969054;28;20034;-79
2023/03/29 02:01:21;;;;;;;9.43;5.03;;;;;;;;;;4978268;28;19945;-79
2023/03/29 02:03:48;;;;;;;7.03;4.32;;;;;;;;;;4992470;28;20030;-79
2023/03/29 02:06:15;;;;;;;6.00;3.90;;;;;;;;;;4991697;28;20034;-79
2023/03/29 02:08:40;;;;;;;5.72;3.85;;;;;;;;;;4975899;28;20038;-79
2023/03/29 02:11:06;;;;;;;;;;;;;;;;;;4975256;28;20022;-79
2023/03/29 02:13:32;;;;;;;10.27;5.32;;;;;;;;;;4993224;28;19917;-79
2023/03/29 02:16:00;;;;;;;;;;;;;;;;;;4975849;28;20593;-79
2023/03/29 02:18:26;;;;;;;6.65;4.35;;;;;;;;;;4995058;28;19921;-79
2023/03/29 02:20:51;;;;;;;;;;;;;;;;;;5000292;28;20029;-80
2023/03/29 02:23:22;;;;;;;6.95;3.28;;;;;;;;;;5029667;28;19913;-79
2023/03/29 02:25:49;;;;;;;5.85;3.72;;;;;;;;;;4986106;28;20120;-80
2023/03/29 02:28:15;;;;;;;5.70;3.85;;;;;;;;;;4996858;28;20028;-80
2023/03/29 02:30:40;;;;;;;;;;;;;;;;;;4972191;28;20034;-79
2023/03/29 02:33:10;;;;;;;6.47;3.88;;;;;;;;;;4993394;28;20408;-79
2023/03/29 02:35:38;;;;;;;5.13;3.60;;;;;;;;;;5006822;28;20026;-79
2023/03/29 02:38:05;;;;;;;5.88;3.97;;;;;;;;;;4991604;28;20505;-80
2023/03/29 02:40:31;;;;;;;6.60;3.60;;;;;;;;;;4972439;28;20458;-79
2023/03/29 02:42:56;;;;;;;5.57;3.95;;;;;;;;;;4990749;28;20117;-80
2023/03/29 02:45:22;;;;;;;;;;;;;;;;;;4993208;28;20515;-79
2023/03/29 02:47:48;;;;;;;5.50;3.90;;;;;;;;;;4992484;28;19913;-79
2023/03/29 02:50:14;;;;;;;8.75;4.13;;;;;;;;;;4972252;28;20066;-79
2023/03/29 02:52:39;;;;;;;;;;;;;;;;;;4986902;28;20072;-80
2023/03/29 02:55:07;;;;;;;9.98;5.25;;;;;;;;;;4991754;28;20027;-79
2023/03/29 02:57:34;;;;;;;7.25;4.78;;;;;;;;;;4991542;28;20093;-80
2023/03/29 02:59:59;;;;;;;6.30;4.43;;;;;;;;;;4991219;28;20042;-80
2023/03/29 03:02:26;;;;;;;;;;;;;;;;;;4991400;28;20395;-80
2023/03/29 03:04:53;;;;;;;9.50;4.80;;;;;;;;;;5022958;28;19921;-79
2023/03/29 03:07:19;;;;;;;;;;;;;;;;;;4991708;28;20512;-80
2023/03/29 03:09:46;;;;;;;7.93;4.35;;;;;;;;;;5006935;28;20063;-80
2023/03/29 03:12:12;;;;;;;5.80;4.53;;;;;;;;;;4975613;28;20026;-79
2023/03/29 03:14:38;;;;;;;;;;;;;;;;;;4991114;28;20033;-79
2023/03/29 03:17:03;;;;;;;7.80;4.72;;;;;;;;;;4991534;28;19910;-79
2023/03/29 03:19:29;;;;;;;;;;;;;;;;;;4975031;28;20061;-79
2023/03/29 03:21:54;;;;;;;7.60;5.05;;;;;;;;;;4991077;28;19941;-80
2023/03/29 03:24:20;;;;;;;8.48;5.18;;;;;;;;;;4997434;28;20034;-80
2023/03/29 03:26:45;;;;;;;;;;;;;;;;;;4995535;28;20038;-80
2023/03/29 03:29:15;;;;;;;9.82;5.22;;;;;;;;;;5026705;28;20288;-80
2023/03/29 03:32:06;;;;;;;6.10;5.05;;;;;;;;;;4980128;28;20437;-79
2023/03/29 03:34:50;;;;;;;8.00;4.45;;;;;;;;;;4999023;28;20053;-79
2023/03/29 03:37:16;;;;;;;;;;;;;;;;;;5007120;28;20504;-79
2023/03/29 03:39:42;;;;;;;8.48;5.63;;;;;;;;;;4996429;28;19909;-80
2023/03/29 03:42:09;;;;;;;6.90;5.32;;;;;;;;;;4984634;28;20038;-80
2023/03/29 03:44:40;;;;;;;6.93;5.28;;;;;;;;;;4995642;28;20089;-80
2023/03/29 03:47:36;;;;;;;8.55;5.97;;;;;;;;;;4987703;28;20096;-80
2023/03/29 03:50:16;;;;;;;8.52;6.32;;;;;;;;;;4975760;28;20029;-80
2023/03/29 03:52:41;;;;;;;;;;;;;;;;;;4996752;28;20034;-80
2023/03/29 03:55:08;;;;;;;10.13;6.60;;;;;;;;;;5008563;28;19949;-79
2023/03/29 03:57:48;;;;;;;9.77;6.47;;;;;;;;;;4989963;28;20129;-80
2023/03/29 04:00:18;;;;;;;7.63;6.10;;;;;;;;;;4998757;28;20405;-79
2023/03/29 04:02:47;;;;;;;9.13;6.43;;;;;;;;;;4990465;28;20493;-77
2023/03/29 04:05:12;;;;;;;;;;;;;;;;;;4990401;28;20033;-78
2023/03/29 04:07:39;;;;;;;9.63;6.35;;;;;;;;;;4991695;28;19913;-79
2023/03/29 04:10:23;;;;;;;8.60;6.45;;;;;;;;;;4989205;28;20053;-80
2023/03/29 04:13:03;;;;;;;10.55;6.68;;;;;;;;;;4979694;28;20507;-79
2023/03/29 04:15:31;;;;;;;8.82;6.13;;;;;;;;;;4976925;28;20034;-79
2023/03/29 04:18:06;;;;;;;9.38;6.97;;;;;;;;;;4980813;28;20113;-79
2023/03/29 04:20:44;;;;;;;10.75;7.75;;;;;;;;;;4996741;28;20312;-79
2023/03/29 04:23:11;;;;;;;12.93;8.07;;;;;;;;;;4994582;28;20038;-77
2023/03/29 04:25:38;;;;;;;10.05;7.93;;;;;;;;;;4978193;28;20025;-79
2023/03/29 04:28:23;;;;;;;12.48;8.82;;;;;;;;;;4991022;28;20046;-79
2023/03/29 04:31:10;;;;;;;12.30;9.25;;;;;;;;;;4976789;28;20065;-78
2023/03/29 04:33:47;;;;;;;13.57;9.05;;;;;;;;;;4993150;28;20383;-78
2023/03/29 04:36:14;;;;;;;16.98;12.48;;;;;;;;;;4978161;28;20080;-79
2023/03/29 04:38:40;;;;;;;20.80;16.63;;;;;;;;;;4982422;28;20040;-78
2023/03/29 04:41:07;;;;;;;;;;;;;;;;;;4975640;28;20065;-78
2023/03/29 04:43:54;;;;;;;11.10;8.70;;;;;;;;;;4992802;28;20368;-78
2023/03/29 04:46:25;;;;;;;13.88;9.30;;;;;;;;;;4979227;28;20430;-79
2023/03/29 04:49:10;;;;;;;13.05;9.60;;;;;;;;;;4973199;28;20085;-78
2023/03/29 04:51:42;;;;;;;12.43;8.48;;;;;;;;;;4983330;28;20125;-77
2023/03/29 04:54:08;;;;;;;12.95;9.63;;;;;;;;;;4978187;28;20038;-80
2023/03/29 04:56:53;;;;;;;16.33;9.77;;;;;;;;;;4992315;28;20081;-81
2023/03/29 04:59:39;;;;;;;13.70;9.57;;;;;;;;;;4987664;28;20027;-80
2023/03/29 05:02:37;;;;;;;15.02;8.82;;;;;;;;;;4990403;28;20046;-79
2023/03/29 05:05:03;;;;;;;;;;;;;;;;;;4994951;28;20035;-79
2023/03/29 05:07:29;;;;;;;18.95;13.50;;;;;;;;;;5024549;28;19920;-81
2023/03/29 05:09:55;;;;;;;;;;;;;;;;;;4994484;28;20034;-81
2023/03/29 05:12:21;;;;;;;11.05;8.82;;;;;;;;;;5004652;28;19921;-79
2023/03/29 05:14:51;;;;;;;13.55;10.65;;;;;;;;;;4993913;28;20039;-79
2023/03/29 05:17:18;;;;;;;13.65;9.73;;;;;;;;;;4978582;28;20125;-79
2023/03/29 05:19:45;;;;;;;11.52;8.98;;;;;;;;;;4995457;28;20382;-79
2023/03/29 05:22:12;;;;;;;13.10;10.20;;;;;;;;;;4997394;28;20022;-79
2023/03/29 05:24:39;;;;;;;16.48;11.27;;;;;;;;;;4995119;28;20034;-79
2023/03/29 05:27:12;;;;;;;14.27;10.20;;;;;;;;;;4997084;28;20030;-79
2023/03/29 05:29:38;;;;;;;14.55;10.00;;;;;;;;;;5006490;28;20026;-79
2023/03/29 05:32:27;;;;;;;12.27;9.18;;;;;;;;;;4984333;28;20030;-78
2023/03/29 05:34:52;;;;;;;15.68;9.20;;;;;;;;;;4995489;28;20497;-79
2023/03/29 05:37:18;;;;;;;13.38;9.73;;;;;;;;;;4995461;28;20035;-78
2023/03/29 05:39:56;;;;;;;12.75;9.30;;;;;;;;;;4982976;28;20038;-78
2023/03/29 05:42:28;;;;;;;13.30;9.20;;;;;;;;;;4995517;28;20041;-78
2023/03/29 05:45:05;;;;;;;15.52;9.20;;;;;;;;;;4995668;28;20036;-78
2023/03/29 05:47:31;;;;;;;;;;;;;;;;;;4974035;28;20405;-79
2023/03/29 05:49:56;;;;;;;15.55;9.90;;;;;;;;;;4991595;28;19909;-78
2023/03/29 05:52:23;;;;;;;13.70;10.30;;;;;;;;;;4995535;28;20030;-80
2023/03/29 05:54:49;;;;;;;12.93;10.27;;;;;;;;;;4995253;28;20476;-79
2023/03/29 05:57:15;;;;;;;14.15;9.68;;;;;;;;;;4993472;28;20042;-78
2023/03/29 05:59:41;;;;;;;14.95;9.32;;;;;;;;;;4991916;28;20081;-79
2023/03/29 06:02:10;;;;;;;12.35;9.18;;;;;;;;;;4985643;28;20038;-76
2023/03/29 06:04:39;;;;;;;14.57;10.15;;;;;;;;;;4978128;28;20033;-76
2023/03/29 06:07:23;;;;;;;13.68;10.13;;;;;;;;;;4993052;28;20038;-76
2023/03/29 06:10:08;;;;;;;18.13;10.02;;;;;;;;;;4994222;28;20049;-78
2023/03/29 06:12:35;;;;;;;13.13;10.38;;;;;;;;;;4979109;28;20437;-77
2023/03/29 06:15:03;;;;;;;13.90;10.32;;;;;;;;;;4993013;28;20022;-77
2023/03/29 06:17:36;;;;;;;13.93;10.40;;;;;;;;;;4994502;28;20417;-77
2023/03/29 06:20:07;;;;;;;14.55;10.13;;;;;;;;;;4993687;28;20117;-76
2023/03/29 06:22:33;;;;;;;14.35;10.75;;;;;;;;;;4976431;28;20034;-76
2023/03/29 06:24:59;;;;;;;18.45;12.43;;;;;;;;;;4976587;28;20022;-76
2023/03/29 06:27:30;;;;;;;17.20;11.38;;;;;;;;;;4992679;28;20108;-76
2023/03/29 06:29:56;;;;;;;15.73;11.40;;;;;;;;;;4975759;28;20034;-77
2023/03/29 06:32:22;;;;;;;16.15;10.65;;;;;;;;;;4976791;28;20108;-76
2023/03/29 06:34:58;;;;;;;15.43;11.15;;;;;;;;;;4975639;28;20509;-78
2023/03/29 06:37:34;;;;;;;13.35;11.10;;;;;;;;;;4992126;28;20589;-76
2023/03/29 06:40:10;;;;;;;12.63;10.38;;;;;;;;;;4976393;28;20117;-76
2023/03/29 06:42:44;;;;;;;14.27;11.75;;;;;;;;;;4976677;28;20101;-77
2023/03/29 06:45:12;;;;;;;15.18;11.07;;;;;;;;;;4994105;28;20397;-75
2023/03/29 06:47:38;;;;;;;17.05;10.50;;;;;;;;;;4976152;28;20037;-77
2023/03/29 06:50:04;;;;;;;;;;;;;;;;;;4992640;28;20062;-76
2023/03/29 06:52:35;;;;;;;16.65;11.55;;;;;;;;;;4992090;28;20424;-79
2023/03/29 06:55:01;;;;;;;15.25;11.65;;;;;;;;;;4973203;28;20122;-76
2023/03/29 06:57:27;;;;;;;13.80;11.57;;;;;;;;;;4986388;28;20125;-77
2023/03/29 06:59:53;;;;;;;13.75;12.15;;;;;;;;;;4974471;28;20458;-77
2023/03/29 07:02:22;;;;;;;12.88;10.52;;;;;;;;;;4970749;28;20507;-77
2023/03/29 07:05:00;;;;;;;12.93;10.45;;;;;;;;;;4981727;28;20069;-78
2023/03/29 07:07:52;;;;;;;16.35;13.15;;;;;;;;;;4994278;28;20089;-77
2023/03/29 07:10:31;;;;;;;13.10;10.75;;;;;;;;;;4992804;28;20053;-78
2023/03/29 07:13:16;;;;;;;12.45;10.10;;;;;;;;;;4984814;28;20049;-78
2023/03/29 07:15:42;;;;;;;11.32;9.27;;;;;;;;;;4981446;28;20072;-77
2023/03/29 07:18:17;;;;;;;12.27;9.65;;;;;;;;;;4980790;28;20165;-75
2023/03/29 07:20:43;;;;;;;;;;;;;;;;;;4983508;28;20497;-76
2023/03/29 07:23:09;;;;;;;11.43;10.10;;;;;;;;;;4994551;28;20012;-76
2023/03/29 07:25:35;;;;;;;;;;;;;;;;;;4985076;28;20033;-76
2023/03/29 07:28:00;;;;;;;10.38;7.63;;;;;;;;;;5000779;28;19917;-76
2023/03/29 07:30:29;;;;;;;8.73;7.38;;;;;;;;;;5002427;28;20028;-77
2023/03/29 07:33:05;;;;;;;8.45;7.15;;;;;;;;;;5000235;28;20461;-77
2023/03/29 07:35:38;;;;;;;9.18;6.78;;;;;;;;;;4998586;28;20057;-77
2023/03/29 07:38:07;;;;;;;7.68;6.32;;;;;;;;;;4999331;28;20061;-78
2023/03/29 07:40:33;;;;;;;8.05;6.07;;;;;;;;;;5004526;28;20033;-78
2023/03/29 07:43:22;;;;;;;6.95;6.15;;;;;;;;;;4977585;28;20065;-78
2023/03/29 07:46:08;;;;;;;8.13;6.45;;;;;;;;;;5001880;28;20404;-79
2023/03/29 07:48:35;;;;;;;8.73;6.90;;;;;;;;;;4990312;28;20064;-78
2023/03/29 07:51:12;;;;;;;8.65;7.05;;;;;;;;;;4999845;28;20049;-78
2023/03/29 07:53:46;;;;;;;7.47;6.38;;;;;;;;;;4991581;28;20041;-77
2023/03/29 07:56:31;;;;;;;9.60;6.82;;;;;;;;;;4991433;28;20085;-78
2023/03/29 07:59:17;;;;;;;7.03;5.78;;;;;;;;;;4992655;28;20042;-77
2023/03/29 08:01:46;;;;;;;7.28;5.85;;;;;;;;;;4991743;28;20125;-77
2023/03/29 08:04:38;;;;;;;7.40;5.85;;;;;;;;;;4992270;28;20038;-77
2023/03/29 08:07:13;;;;;;;9.45;7.00;;;;;;;;;;4991808;28;20045;-77
2023/03/29 08:09:57;;;;;;;10.13;7.07;;;;;;;;;;4980685;28;20124;-79
2023/03/29 08:12:41;;;;;;;9.60;7.00;;;;;;;;;;4992970;28;20092;-78
2023/03/29 08:15:08;;;;;;;9.23;6.28;;;;;;;;;;4992215;28;20030;-76
2023/03/29 08:17:33;;;;;;;10.48;6.82;;;;;;;;;;4992990;28;20486;-77
2023/03/29 08:20:01;;;;;;;8.65;6.32;;;;;;;;;;4976488;28;20401;-77
2023/03/29 08:22:27;;;;;;;9.68;7.80;;;;;;;;;;4977698;28;20030;-77
2023/03/29 08:25:28;;;;;;;8.05;6.30;;;;;;;;;;4961505;28;20573;-77
2023/03/29 08:27:53;;;;;;;8.65;6.72;;;;;;;;;;4984190;28;20149;-77
2023/03/29 08:30:42;;;;;;;13.13;9.18;;;;;;;;;;4987772;28;20034;-78
2023/03/29 08:33:07;;;;;;;9.57;7.22;;;;;;;;;;4992630;28;20054;-76
2023/03/29 08:35:33;;;;;;;8.00;6.07;;;;;;;;;;4990402;28;20038;-78
2023/03/29 08:38:11;;;;;;;7.13;5.93;;;;;;;;;;4993514;28;20030;-78
2023/03/29 08:40:37;;;;;;;6.32;5.25;;;;;;;;;;4992904;28;20120;-78
2023/03/29 08:43:18;;;;;;;6.80;5.78;;;;;;;;;;4993896;28;20033;-77
2023/03/29 08:46:08;;;;;;;7.38;6.07;;;;;;;;;;4986947;28;20455;-78
2023/03/29 08:48:35;;;;;;;7.28;6.38;;;;;;;;;;4990518;28;20113;-77
2023/03/29 08:51:03;;;;;;;6.53;5.32;;;;;;;;;;4977850;28;20492;-78
2023/03/29 08:53:32;;;;;;;9.23;6.30;;;;;;;;;;4981464;28;20037;-78
2023/03/29 08:56:07;;;;;;;6.88;5.85;;;;;;;;;;4992176;28;20502;-77
2023/03/29 08:58:45;;;;;;;6.88;6.00;;;;;;;;;;4994237;28;20045;-78
2023/03/29 09:01:11;;;;;;;8.57;6.65;;;;;;;;;;4993995;28;20027;-78
2023/03/29 09:03:47;;;;;;;7.57;5.90;;;;;;;;;;4979478;28;20030;-77
2023/03/29 09:06:20;;;;;;;7.20;6.30;;;;;;;;;;4978410;28;20038;-78
2023/03/29 09:08:48;;;;;;;8.85;6.80;;;;;;;;;;4993880;28;20038;-76
2023/03/29 09:11:14;;;;;;;;;;;;;;;;;;4994140;28;20032;-77
2023/03/29 09:13:58;;;;;;;8.48;6.00;;;;;;;;;;5026675;28;20067;-79
2023/03/29 09:16:27;;;;;;;7.65;5.75;;;;;;;;;;4983351;28;20508;-79
2023/03/29 09:19:11;;;;;;;8.50;6.32;;;;;;;;;;4994248;28;20060;-79
2023/03/29 09:21:36;;;;;;;8.52;6.00;;;;;;;;;;5002757;28;20121;-78
2023/03/29 09:24:06;;;;;;;6.80;5.75;;;;;;;;;;4994181;28;20464;-78
2023/03/29 09:26:53;;;;;;;7.53;6.20;;;;;;;;;;4993647;28;20057;-77
2023/03/29 09:29:29;;;;;;;12.70;8.80;;;;;;;;;;4985088;28;20120;-77
2023/03/29 09:31:55;;;;;;;6.57;5.80;;;;;;;;;;4993552;28;20121;-77
2023/03/29 09:34:22;;;;;;;6.28;5.15;;;;;;;;;;4985059;28;20057;-77
2023/03/29 09:37:10;;;;;;;7.70;5.75;;;;;;;;;;4993326;28;20489;-77
2023/03/29 09:39:37;;;;;;;;;;;;;;;;;;4978478;28;20133;-78
2023/03/29 09:42:08;;;;;;;7.70;6.90;;;;;;;;;;4993059;28;19953;-77
2023/03/29 09:44:37;;;;;;;8.90;6.90;;;;;;;;;;4993509;28;20545;-77
2023/03/29 09:47:09;;;;;;;6.85;6.15;;;;;;;;;;4993316;28;20237;-78
2023/03/29 09:49:37;;;;;;;6.88;5.90;;;;;;;;;;4993319;28;20042;-78
2023/03/29 09:52:04;;;;;;;9.30;8.30;;;;;;;;;;4976798;28;20084;-76
2023/03/29 09:54:30;;;;;;;7.75;6.50;;;;;;;;;;4981809;28;20120;-78
2023/03/29 09:57:25;;;;;;;6.43;5.03;;;;;;;;;;4989247;28;20125;-77
2023/03/29 09:59:51;;;;;;;7.85;6.55;;;;;;;;;;4977498;28;20593;-79
2023/03/29 10:02:17;;;;;;;7.57;6.78;;;;;;;;;;4994050;28;20134;-78
2023/03/29 10:04:43;;;;;;;5.55;4.97;;;;;;;;;;4978940;28;20053;-78
2023/03/29 10:07:16;;;;;;;5.07;4.30;;;;;;;;;;4993402;28;20026;-76
2023/03/29 10:09:44;;;;;;;4.63;4.20;;;;;;;;;;4977717;28;20034;-78
2023/03/29 10:12:16;;;;;;;3.92;3.53;;;;;;;;;;4978519;28;20022;-76
2023/03/29 10:14:42;;;;;;;4.65;3.60;;;;;;;;;;4993506;28;20544;-78
2023/03/29 10:17:07;;;;;;;;;;;;;;;;;;4995207;28;20034;-76
2023/03/29 10:19:33;;;;;;;4.88;3.40;;;;;;;;;;4996201;28;19914;-76
2023/03/29 10:22:18;;;;;;;4.00;3.35;;;;;;;;;;4991145;28;20500;-79
2023/03/29 10:24:51;;;;;;;2.65;2.10;;;;;;;;;;5000042;28;20042;-78
2023/03/29 10:27:18;;;;;;;3.60;2.40;;;;;;;;;;4997955;28;20493;-77
2023/03/29 10:29:43;;;;;;;5.07;2.10;;;;;;;;;;4995174;28;20049;-77
2023/03/29 10:32:13;;;;;;;3.33;2.22;;;;;;;;;;4998731;28;20034;-77
2023/03/29 10:34:38;;;;;;;2.72;1.88;;;;;;;;;;4995753;28;20082;-76
2023/03/29 10:37:05;;;;;;;3.38;2.83;;;;;;;;;;4993726;28;20072;-78
2023/03/29 10:39:32;;;;;;;5.55;3.30;;;;;;;;;;4993919;28;20057;-79
2023/03/29 10:41:57;;;;;;;2.75;2.10;;;;;;;;;;4979664;28;20038;-77
2023/03/29 10:44:27;;;;;;;3.80;2.20;;;;;;;;;;4979078;28;20034;-77
2023/03/29 10:46:52;;;;;;;3.20;2.00;;;;;;;;;;4996963;28;20084;-77
2023/03/29 10:49:18;;;;;;;4.60;2.33;;;;;;;;;;4992590;28;20018;-79
2023/03/29 10:51:44;;;;;;;;;;;;;;;;;;4996970;28;20042;-78
2023/03/29 10:54:10;;;;;;;3.83;2.00;;;;;;;;;;4999388;28;19910;-78
2023/03/29 10:56:37;;;;;;;;;;;;;;;;;;4991409;28;20088;-78
2023/03/29 10:59:03;;;;;;;7.20;2.20;;;;;;;;;;4995991;28;19909;-78
2023/03/29 11:01:37;;;;;;;4.63;2.22;;;;;;;;;;5000438;28;20493;-77
2023/03/29 11:04:14;;;;;;;3.50;2.63;;;;;;;;;;4997448;28;20257;-77
2023/03/29 11:06:43;;;;;;;6.25;3.38;;;;;;;;;;4980761;28;20049;-77
2023/03/29 11:09:44;;;;;;;2.80;2.20;;;;;;;;;;4998111;28;20035;-78
2023/03/29 11:12:42;;;;;;;2.47;2.00;;;;;;;;;;4951564;28;20407;-78
2023/03/29 11:15:11;;;;;;;3.35;2.20;;;;;;;;;;4975424;28;20061;-79
2023/03/29 11:17:41;;;;;;;2.97;2.30;;;;;;;;;;5001388;28;20037;-78
2023/03/29 11:20:25;;;;;;;2.75;2.00;;;;;;;;;;4997191;28;20391;-78
2023/03/29 11:23:04;;;;;;;2.88;2.00;;;;;;;;;;4995298;28;20129;-76
2023/03/29 11:25:29;;;;;;;4.82;2.50;;;;;;;;;;4999366;28;20042;-78
2023/03/29 11:27:55;;;;;;;;;;;;;;;;;;4999632;28;20137;-78
2023/03/29 11:30:26;;;;;;;2.70;2.25;;;;;;;;;;4997189;28;19918;-78
2023/03/29 11:33:08;;;;;;;9.20;6.72;;;;;;;;;;4997526;28;20057;-78
2023/03/29 11:35:42;;;;;;;7.90;6.50;;;;;;;;;;4984433;28;20054;-77
2023/03/29 11:38:13;;;;;;;3.50;2.75;;;;;;;;;;4970179;28;20038;-78
2023/03/29 11:40:43;;;;;;;3.22;2.63;;;;;;;;;;4999220;28;20398;-78
2023/03/29 11:43:11;;;;;;;3.33;2.38;;;;;;;;;;4993013;28;20030;-77
2023/03/29 11:45:47;;;;;;;3.92;3.10;;;;;;;;;;4979564;28;20038;-78
2023/03/29 11:48:18;;;;;;;3.20;2.75;;;;;;;;;;5000080;28;20038;-77
2023/03/29 11:50:47;;;;;;;3.45;3.15;;;;;;;;;;4990217;28;20498;-78
2023/03/29 11:53:18;;;;;;;5.07;4.50;;;;;;;;;;4990988;28;20165;-78
2023/03/29 11:55:44;;;;;;;5.55;4.00;;;;;;;;;;4990315;28;20034;-78
2023/03/29 11:58:09;;;;;;;;;;;;;;;;;;4992409;28;20045;-76
2023/03/29 12:00:39;;;;;;;4.78;3.78;;;;;;;;;;4991002;28;20400;-79
2023/03/29 12:03:23;;;;;;;4.80;4.30;;;;;;;;;;4990927;28;20184;-76
2023/03/29 12:06:12;;;;;;;5.65;4.18;;;;;;;;;;4990657;28;20520;-78
2023/03/29 12:08:39;;;;;;;5.47;4.70;;;;;;;;;;4988992;28;20052;-78
2023/03/29 12:11:23;;;;;;;8.20;5.85;;;;;;;;;;4989880;28;20480;-77
2023/03/29 12:14:01;;;;;;;10.80;6.45;;;;;;;;;;4991896;28;20038;-77
2023/03/29 12:16:40;;;;;;;7.93;7.13;;;;;;;;;;4991327;28;20044;-77
2023/03/29 12:19:44;;;;;;;11.18;9.85;;;;;;;;;;4991402;28;20445;-77
2023/03/29 12:22:10;;;;;;;10.43;8.60;;;;;;;;;;4973923;28;20034;-78
2023/03/29 12:24:40;;;;;;;10.02;8.45;;;;;;;;;;4945733;28;20113;-78
2023/03/29 12:27:07;;;;;;;;;;;;;;;;;;4977762;28;20150;-78
2023/03/29 12:29:39;;;;;;;10.15;7.90;;;;;;;;;;4990502;28;19996;-78
2023/03/29 12:32:13;;;;;;;8.10;6.95;;;;;;;;;;4996399;28;20034;-79
2023/03/29 12:35:02;;;;;;;7.88;6.97;;;;;;;;;;4984644;28;20153;-79
2023/03/29 12:38:01;;;;;;;9.98;7.70;;;;;;;;;;5000741;28;20045;-77
2023/03/29 12:41:00;;;;;;;6.82;5.90;;;;;;;;;;4959396;28;20042;-78
2023/03/29 12:43:44;;;;;;;17.45;9.32;;;;;;;;;;5003801;28;20100;-78
2023/03/29 12:46:39;;;;;;;15.80;11.82;;;;;;;;;;5001963;28;20465;-78
2023/03/29 12:49:06;;;;;;;;;;;;;;;;;;5001295;28;20049;-78
2023/03/29 12:51:32;;;;;;;10.00;7.43;;;;;;;;;;5005113;28;19909;-77
2023/03/29 12:53:57;;;;;;;;;;;;;;;;;;5003633;28;20037;-78
2023/03/29 12:56:33;;;;;;;9.80;8.80;;;;;;;;;;4993071;28;19929;-78
2023/03/29 12:59:08;;;;;;;7.67;6.33;;;;;;;;;;4994251;28;20117;-78
2023/03/29 13:01:35;;;;;;;8.18;6.10;;;;;;;;;;4992196;28;20034;-79
2023/03/29 13:04:02;;;;;;;6.80;5.97;;;;;;;;;;4995662;28;20031;-78
2023/03/29 13:06:32;;;;;;;4.38;3.78;;;;;;;;;;4994317;28;20058;-79
2023/03/29 13:08:58;;;;;;;6.53;4.10;;;;;;;;;;4995057;28;20024;-78
2023/03/29 13:11:26;;;;;;;4.75;3.92;;;;;;;;;;4994119;28;20485;-78
2023/03/29 13:13:52;;;;;;;3.55;2.90;;;;;;;;;;4993967;28;20038;-78
2023/03/29 13:16:17;;;;;;;;;;;;;;;;;;4995573;28;20053;-78
2023/03/29 13:19:01;;;;;;;3.40;2.83;;;;;;;;;;4995244;28;19946;-77
2023/03/29 13:21:53;;;;;;;4.18;3.38;;;;;;;;;;4995735;28;20117;-76
2023/03/29 13:24:27;;;;;;;6.20;3.92;;;;;;;;;;4986820;28;20831;-78
2023/03/29 13:26:53;;;;;;;4.00;2.90;;;;;;;;;;4993264;28;20045;-78
2023/03/29 13:29:18;;;;;;;;;;;;;;;;;;4994196;28;20378;-77
2023/03/29 13:31:59;;;;;;;4.40;3.40;;;;;;;;;;4994609;28;19921;-79
2023/03/29 13:34:30;;;;;;;4.95;3.15;;;;;;;;;;4995066;28;20050;-78
2023/03/29 13:37:02;;;;;;;3.97;3.10;;;;;;;;;;4993483;28;20038;-79
2023/03/29 13:39:28;;;;;;;3.92;3.45;;;;;;;;;;4994123;28;20405;-77
2023/03/29 13:41:53;;;;;;;;;;;;;;;;;;4994813;28;20030;-77
2023/03/29 13:44:32;;;;;;;4.55;3.55;;;;;;;;;;4995858;28;19964;-77
2023/03/29 13:47:02;;;;;;;4.25;3.60;;;;;;;;;;4994366;28;20498;-77
2023/03/29 13:49:28;;;;;;;5.30;4.05;;;;;;;;;;4995864;28;20030;-78
2023/03/29 13:51:53;;;;;;;;;;;;;;;;;;4995119;28;20125;-77
2023/03/29 13:54:34;;;;;;;4.53;3.70;;;;;;;;;;4991626;28;19916;-76
2023/03/29 13:57:04;;;;;;;6.18;4.63;;;;;;;;;;4991640;28;20066;-76
2023/03/29 13:59:32;;;;;;;5.70;4.95;;;;;;;;;;4993221;28;20069;-77
2023/03/29 14:01:59;;;;;;;6.25;5.28;;;;;;;;;;4994909;28;20370;-76
2023/03/29 14:04:43;;;;;;;7.63;5.55;;;;;;;;;;4993373;28;20032;-77
2023/03/29 14:07:10;;;;;;;6.57;5.45;;;;;;;;;;4994694;28;20489;-76
2023/03/29 14:09:37;;;;;;;6.55;5.30;;;;;;;;;;4993988;28;20100;-78
2023/03/29 14:12:03;;;;;;;8.13;5.20;;;;;;;;;;4993178;28;20390;-77
2023/03/29 14:14:28;;;;;;;;;;;;;;;;;;4994309;28;20019;-78
2023/03/29 14:16:54;;;;;;;7.25;5.65;;;;;;;;;;4994030;28;20377;-77
2023/03/29 14:19:33;;;;;;;5.95;4.80;;;;;;;;;;4992134;28;20030;-78
2023/03/29 14:21:59;;;;;;;6.55;4.75;;;;;;;;;;4992274;28;20045;-77
2023/03/29 14:24:24;;;;;;;;;;;;;;;;;;4994330;28;20030;-78
2023/03/29 14:26:50;;;;;;;6.63;5.28;;;;;;;;;;4993353;28;20013;-79
2023/03/29 14:29:17;;;;;;;;;;;;;;;;;;4973600;28;20027;-77
2023/03/29 14:31:42;;;;;;;7.03;5.00;;;;;;;;;;4989085;28;19914;-78
2023/03/29 14:34:07;;;;;;;;;;;;;;;;;;4994965;28;20050;-78
2023/03/29 14:36:33;;;;;;;5.00;4.30;;;;;;;;;;4993602;28;19953;-79
2023/03/29 14:38:58;;;;;;;;;;;;;;;;;;4993576;28;20049;-78
2023/03/29 14:41:30;;;;;;;5.55;4.60;;;;;;;;;;4994677;28;19920;-78
2023/03/29 14:43:56;;;;;;;5.28;4.10;;;;;;;;;;4995052;28;20101;-77
2023/03/29 14:46:21;;;;;;;;;;;;;;;;;;4993396;28;20030;-78
2023/03/29 14:48:47;;;;;;;6.47;5.07;;;;;;;;;;4993410;28;19914;-77
2023/03/29 14:51:12;;;;;;;;;;;;;;;;;;4986523;28;20038;-78
2023/03/29 14:53:38;;;;;;;7.05;5.20;;;;;;;;;;4995698;28;20344;-78
2023/03/29 14:56:04;;;;;;;7.15;5.28;;;;;;;;;;5005356;28;20084;-78
2023/03/29 14:58:29;;;;;;;;;;;;;;;;;;4987531;28;20042;-78
2023/03/29 15:00:55;;;;;;;6.25;4.65;;;;;;;;;;4993919;28;19945;-77
2023/03/29 15:03:26;;;;;;;7.43;4.93;;;;;;;;;;4993433;28;20077;-77
2023/03/29 15:05:53;;;;;;;6.55;5.38;;;;;;;;;;4993339;28;20042;-78
2023/03/29 15:08:26;;;;;;;6.07;5.10;;;;;;;;;;4992038;28;20092;-78
2023/03/29 15:10:51;;;;;;;7.03;5.60;;;;;;;;;;4994464;28;20113;-77
2023/03/29 15:13:18;;;;;;;7.78;6.10;;;;;;;;;;4992505;28;20102;-77
2023/03/29 15:15:44;;;;;;;7.18;5.68;;;;;;;;;;4993887;28;20054;-78
2023/03/29 15:18:09;;;;;;;;;;;;;;;;;;4994910;28;20069;-76